• Join FlightAware (Why Join?)
  • Login
  • US Flag 
05:19AM EDT


 

Airport Tracker/Info


-or-


 

Live Flight TrackerFlight Track Log ✈ N4508X ✈ 20-Jun-2014 ✈ KBID - KHPN

Flight Track Log - Related Links

Times and Time Zones

All times are in EDT time to prevent confusion due to time zone crossing. See the N4508X flight status page for this flight to view local times or setup timezone preferences in your user account.

Time Position Orientation Groundspeed Altitude Reporting Facility
EDT Latitude Longitude Course Direction KTS MPH feet Rate Location/Type
02:56PM 41.2122 -71.5903 326° Northwest 79 91 2,500  Level Boston Center
02:56PM 41.2178 -71.5953 326° Northwest 78 90 2,600 360 Climbing Boston Center
02:57PM 41.2414 -71.6067 340° North 83 96 3,000 300 Climbing Boston Center
02:58PM 41.2500 -71.6136 329° Northwest 83 96 3,100 60 Climbing Boston Center
02:58PM 41.2606 -71.6281 314° West 96 110 3,100 -120 Level Boston Center
02:59PM 41.2725 -71.6347 337° Northwest 93 107 3,000 -120 Descending Boston Center
02:59PM 41.2850 -71.6456 327° Northwest 99 114 3,000  Level Boston Center
03:00PM 41.2950 -71.6561 322° Northwest 98 113 3,000  Level Boston Center
03:00PM 41.3033 -71.6722 305° West 99 114 3,000  Level Boston Center
03:01PM 41.3136 -71.6872 312° West 98 113 3,000 -240 Level Boston Center
03:01PM 41.3189 -71.7011 297° West 95 109 2,800 -120 Descending Boston Center
03:02PM 41.3267 -71.7169 303° West 96 110 2,900 60 Climbing Boston Center
03:02PM 41.3331 -71.7378 292° West 102 117 2,900 60 Level Boston Center
03:03PM 41.3369 -71.7489 295° West 88 101 3,000 60 Climbing Boston Center
03:03PM 41.3375 -71.7681 272° West 88 101 3,000  Level Boston Center
03:04PM 41.3394 -71.7831 280° West 92 106 3,000  Level Boston Center
03:04PM 41.3361 -71.8050 259° West 106 122 3,000 -120 Level Boston Center
03:05PM 41.3342 -71.8217 261° West 102 117 2,900  Descending Boston Center
03:05PM 41.3314 -71.8375 257° West 93 107 3,000 180 Climbing Boston Center
03:06PM 41.3300 -71.8578 265° West 95 109 3,100 60 Climbing Boston Center
03:06PM 41.3297 -71.8772 269° West 111 128 3,100  Level Boston Center
03:07PM 41.3300 -71.8989 271° West 108 124 3,100 -120 Level Boston Center
03:08PM 41.3272 -71.9194 260° West 91 105 3,000 -120 Descending Boston Center
03:08PM 41.3272 -71.9372 270° West 102 117 3,000 -120 Level Boston Center
03:09PM 41.3267 -71.9536 267° West 100 115 2,900 -120 Descending Boston Center
03:09PM 41.3256 -71.9739 266° West 101 116 2,900  Level Boston Center
03:09PM 41.3239 -71.9869 260° West 101 116 2,900 -120 Level Boston Center
03:10PM 41.3222 -72.0078 264° West 101 116 2,800 -120 Descending Boston Center
03:10PM 41.3211 -72.0203 263° West 100 115 2,800 60 Level Boston Center
03:11PM 41.3211 -72.0472 270° West 95 109 2,900 120 Climbing Boston Center
03:12PM 41.3217 -72.0581 274° West 101 116 3,000  Climbing Boston Center
03:12PM 41.3178 -72.0847 259° West 101 116 2,900 -120 Descending Boston Center
03:13PM 41.3128 -72.1006 247° West 110 127 2,900  Level Boston Center
03:13PM 41.3106 -72.1211 262° West 102 117 2,900  Level Boston Center
03:14PM 41.3069 -72.1386 255° West 100 115 2,900 60 Level Boston Center
03:14PM 41.3047 -72.1589 262° West 100 115 3,000 60 Climbing Boston Center
03:15PM 41.3036 -72.1747 265° West 96 110 3,000  Level Boston Center
03:15PM 41.3036 -72.1956 270° West 98 113 3,000  Level Boston Center
03:16PM 41.3022 -72.2114 263° West 98 113 3,000 60 Level Boston Center
03:16PM 41.3017 -72.2303 268° West 98 113 3,100 180 Climbing Boston Center
03:17PM 41.2953 -72.2433 237° Southwest 104 120 3,200  Climbing Boston Center
03:17PM 41.2931 -72.2661 263° West 97 112 3,100 -120 Descending Boston Center
03:18PM 41.2933 -72.2831 271° West 98 113 3,100  Level Boston Center
03:18PM 41.2967 -72.3056 281° West 99 114 3,100 -120 Level Boston Center
03:19PM 41.2961 -72.3214 267° West 114 131 3,000  Descending Boston Center
03:19PM 41.2931 -72.3439 260° West 102 117 3,100  Climbing Boston Center
03:20PM 41.2914 -72.3778 266° West 102 117 3,100 -60 Level Boston Center
03:21PM 41.2886 -72.4208 265° West 102 117 3,000 -240 Descending Boston Center
03:22PM 41.2864 -72.4583 266° West 102 117 2,700 -60 Descending Boston Center
03:23PM 41.2833 -72.4919 263° West 90 104 2,900 120 Climbing Boston Center
03:24PM 41.2847 -72.5261 273° West 90 104 3,000 -60 Climbing Boston Center
03:26PM 41.2836 -72.5619 268° West 94 108 2,800 -120 Descending Boston Center
03:27PM 41.2825 -72.6000 268° West 95 109 2,800  Level Boston Center
03:28PM 41.2803 -72.6353 265° West 95 109 2,900 120 Climbing Boston Center
03:29PM 41.2769 -72.6728 263° West 100 115 3,100  Climbing Boston Center
03:30PM 41.2733 -72.7158 264° West 106 122 2,900 -120 Descending Boston Center
03:31PM 41.2725 -72.7492 268° West 96 110 2,900  Level Boston Center
03:32PM 41.2706 -72.7772 265° West 89 102 3,000 60 Climbing Boston Center
03:33PM 41.2742 -72.8189 277° West 92 106 3,100  Climbing Boston Center
03:34PM 41.2747 -72.8539 271° West 95 109 3,100  Level Boston Center
03:35PM 41.2789 -72.8867 280° West 93 107 3,100  Level Boston Center
03:36PM 41.2706 -72.9217 252° West 100 115 3,100 -240 Level Boston Center
03:37PM 41.2581 -72.9561 244° Southwest 104 120 2,700 -60 Descending Boston Center
03:38PM 41.2486 -72.9925 251° West 104 120 3,000 60 Climbing Boston Center
03:39PM 41.2342 -73.0219 237° Southwest 102 117 2,900 -60 Descending Boston Center
03:40PM 41.2203 -73.0533 240° Southwest 99 114 2,900  Level Boston Center
03:41PM 41.2083 -73.0883 246° West 99 114 2,900  Level Boston Center
03:42PM 41.1983 -73.1306 253° West 100 115 3,000 60 Climbing Boston Center
03:43PM 41.1975 -73.1650 268° West 99 114 3,100 60 Climbing Boston Center
03:44PM 41.2006 -73.1981 277° West 95 109 3,200  Climbing Boston Center
03:45PM 41.1958 -73.2356 261° West 97 112 3,200 -60 Level Boston Center
03:46PM 41.1850 -73.2717 248° West 102 117 3,100 -180 Descending Boston Center
03:47PM 41.1681 -73.3036 235° Southwest 103 119 2,900 -120 Descending Boston Center
03:48PM 41.1503 -73.3461 241° Southwest 104 120 2,900  Level Boston Center
03:49PM 41.1458 -73.3819 261° West 104 120 2,900  Level Boston Center
03:50PM 41.1481 -73.4183 275° West 104 120 2,900 -60 Level Boston Center
03:51PM 41.1381 -73.4511 248° West 101 116 2,800 -180 Descending Boston Center
03:52PM 41.1333 -73.4869 260° West 101 116 2,600 -540 Descending Boston Center
03:53PM 41.1167 -73.5333 245° Southwest 98 113 1,700 -480 Descending New York TRACON
03:54PM 41.1000 -73.5500 217° Southwest 104 120 1,600 -60 Descending New York TRACON
03:56PM 41.0667 -73.5833 217° Southwest 104 120 1,600  Level New York TRACON
03:56PM 41.0500 -73.6000 217° Southwest 106 122 1,600 -240 Level New York TRACON
03:57PM 41.0500 -73.6333 270° West 100 115 1,200 -360 Descending New York TRACON
03:58PM 41.0500 -73.6667 270° West 82 94 1,000 -300 Descending New York TRACON
03:59PM 41.0667 -73.6833 323° Northwest 80 92 700 -300 Descending New York TRACON
04:02PM 41.0667 -73.7000 270° West  Level FlightAware Approximate
04:09PM 41.0669 -73.7076 270° West  Level Estimated